Time;durP1;ratioP1;P1;durP2;ratioP2;P2;SDS_P1;SDS_P2;PMS_P1;PMS_P2;Temp;Humidity;BMP_temperature;BMP_pressure;BME280_temperature;BME280_humidity;BME280_pressure;Samples;Min_cycle;Max_cycle;Signal;HPM_P1;HPM_P2
2022/04/30 00:00:58;;;;;;;7.50;6.90;;;;;;;14.50;67.96;99117.00;4992420;28;103987;-70
2022/04/30 00:03:28;;;;;;;6.30;5.82;;;;;;;14.74;66.91;99106.16;4975689;28;103327;-70
2022/04/30 00:06:00;;;;;;;5.45;5.03;;;;;;;14.90;66.45;99105.75;4986860;28;103127;-69
2022/04/30 00:08:27;;;;;;;6.45;5.95;;;;;;;14.95;65.82;99104.38;4974368;28;103860;-71
2022/04/30 00:10:56;;;;;;;9.10;8.40;;;;;;;14.52;68.75;99107.09;4993957;28;104130;-70
2022/04/30 00:13:24;;;;;;;8.65;7.95;;;;;;;14.52;68.90;99107.09;4990271;28;103994;-61
2022/04/30 00:15:51;;;;;;;8.52;7.82;;;;;;;14.61;68.75;99115.28;4973646;28;103199;-62
2022/04/30 00:18:22;;;;;;;7.67;7.07;;;;;;;14.66;69.11;99113.06;4993685;28;102644;-71
2022/04/30 00:20:50;;;;;;;6.57;6.07;;;;;;;14.84;67.35;99116.88;4992873;28;103559;-70
2022/04/30 00:23:22;;;;;;;9.13;8.32;;;;;;;14.89;67.46;99120.84;4986148;28;104205;-70
2022/04/30 00:25:52;;;;;;;8.52;7.78;;;;;;;14.81;67.97;99118.00;4993500;28;103273;-70
2022/04/30 00:28:23;;;;;;;7.80;7.20;;;;;;;14.86;67.57;99120.25;4987970;28;102683;-70
2022/04/30 00:30:51;;;;;;;9.35;8.55;;;;;;;14.87;67.56;99124.63;4974262;28;103938;-70
2022/04/30 00:33:20;;;;;;;8.80;8.10;;;;;;;14.90;67.26;99113.72;4988725;28;103226;-70
2022/04/30 00:35:48;;;;;;;7.78;7.18;;;;;;;14.92;67.10;99114.44;4975477;28;103345;-70
2022/04/30 00:38:16;;;;;;;9.60;8.70;;;;;;;14.91;66.84;99112.72;4976890;28;103730;-70
2022/04/30 00:40:47;;;;;;;9.70;8.90;;;;;;;14.72;66.12;99117.91;4998954;28;104081;-70
2022/04/30 00:43:16;;;;;;;9.95;9.15;;;;;;;14.42;66.34;99122.13;4994188;28;104156;-70
2022/04/30 00:45:47;;;;;;;8.10;7.43;;;;;;;14.71;65.26;99122.38;4989539;28;102928;-69
2022/04/30 00:48:16;;;;;;;9.37;8.47;;;;;;;14.61;65.22;99123.25;4994114;28;102864;-70
2022/04/30 00:50:44;;;;;;;8.23;7.53;;;;;;;14.29;66.20;99120.50;4995457;28;103851;-69
2022/04/30 00:53:17;;;;;;;8.82;7.93;;;;;;;14.56;64.56;99118.31;4999995;28;103046;-70
2022/04/30 00:55:49;;;;;;;7.78;7.15;;;;;;;14.52;63.89;99117.72;4998690;28;103322;-71
2022/04/30 00:58:21;;;;;;;8.57;7.78;;;;;;;14.24;64.82;99118.25;4999166;28;102786;-71
2022/04/30 01:00:52;;;;;;;7.35;6.75;;;;;;;14.54;64.37;99122.09;4995632;28;102700;-70
2022/04/30 01:03:38;;;;;;;7.90;7.18;;;;;;;14.49;64.44;99120.63;4981182;28;105511;-69
2022/04/30 01:06:07;;;;;;;8.02;7.43;;;;;;;14.49;64.54;99117.97;4996072;28;104312;-70
2022/04/30 01:08:37;;;;;;;8.20;7.53;;;;;;;14.28;66.08;99119.69;4998041;28;102780;-69
2022/04/30 01:11:06;;;;;;;8.00;7.30;;;;;;;14.44;65.63;99124.63;4992551;28;103925;-71
2022/04/30 01:13:35;;;;;;;9.37;8.57;;;;;;;14.34;66.43;99119.22;4995669;28;103202;-67
2022/04/30 01:16:05;;;;;;;10.73;9.77;;;;;;;13.96;68.69;99126.72;4995958;28;103302;-69
2022/04/30 01:18:35;;;;;;;9.85;8.95;;;;;;;14.25;67.68;99119.94;4990867;28;102612;-70
2022/04/30 01:21:10;;;;;;;11.18;9.98;;;;;;;14.25;68.22;99125.25;4996556;28;103878;-70
2022/04/30 01:23:42;;;;;;;12.18;10.88;;;;;;;14.08;69.08;99127.56;4976503;28;104155;-70
2022/04/30 01:26:13;;;;;;;12.95;11.52;;;;;;;13.83;70.03;99124.22;4995776;28;103193;-70
2022/04/30 01:28:44;;;;;;;12.30;11.13;;;;;;;14.05;69.85;99123.34;4995421;28;102663;-70
2022/04/30 01:39:26;;;;;;;13.73;12.43;;;;;;;14.26;70.29;99105.66;4993073;28;102918;-62
2022/04/30 01:41:54;;;;;;;16.38;14.88;;;;;;;13.99;71.87;99117.66;4995895;28;102794;-62
2022/04/30 01:44:23;;;;;;;15.75;13.77;;;;;;;14.22;70.88;99104.25;4974717;28;104246;-62
2022/04/30 01:46:51;;;;;;;14.82;13.43;;;;;;;14.43;70.39;99113.16;4995643;28;103202;-62
2022/04/30 01:49:21;;;;;;;16.40;14.80;;;;;;;14.09;71.75;99102.69;4996193;28;102663;-63
2022/04/30 01:51:50;;;;;;;14.85;13.45;;;;;;;14.15;72.09;99102.19;4995256;28;102811;-62
2022/04/30 01:54:18;;;;;;;14.45;12.95;;;;;;;14.42;70.74;99100.00;4976265;28;104129;-61
2022/04/30 01:56:47;;;;;;;16.38;14.88;;;;;;;14.27;71.32;99086.09;4989899;28;104164;-61
2022/04/30 01:59:19;;;;;;;17.73;15.93;;;;;;;14.06;72.63;99087.84;4978009;28;102716;-62
2022/04/30 02:01:48;;;;;;;15.80;14.18;;;;;;;14.19;72.19;99085.88;4973400;28;103467;-70
2022/04/30 02:04:16;;;;;;;14.82;13.52;;;;;;;14.33;71.79;99079.47;4992297;28;103259;-71
2022/04/30 02:06:46;;;;;;;14.67;13.37;;;;;;;14.19;72.43;99088.53;4995308;28;103230;-70
2022/04/30 02:09:15;;;;;;;17.80;15.90;;;;;;;14.07;73.58;99094.84;4994458;28;102708;-69
2022/04/30 02:11:45;;;;;;;15.52;14.02;;;;;;;14.04;72.93;99095.06;4994581;28;102994;-70
2022/04/30 02:14:19;;;;;;;17.88;15.63;;;;;;;13.97;74.05;99085.94;4993314;28;104012;-70
2022/04/30 02:16:48;;;;;;;16.30;14.70;;;;;;;14.00;73.83;99085.69;4995696;28;102991;-62
2022/04/30 02:19:17;;;;;;;16.48;14.80;;;;;;;14.15;72.72;99087.09;4994879;28;102715;-62
2022/04/30 02:21:46;;;;;;;19.13;15.93;;;;;;;14.01;73.93;99090.00;4999969;28;103763;-62
2022/04/30 02:24:15;;;;;;;17.60;15.80;;;;;;;14.19;72.71;99088.53;4992449;28;104169;-63
2022/04/30 02:26:43;;;;;;;16.87;15.27;;;;;;;14.21;73.16;99091.91;4993496;28;103224;-63
2022/04/30 02:29:11;;;;;;;18.33;16.53;;;;;;;14.20;73.15;99086.75;4994344;28;102756;-62
2022/04/30 02:31:41;;;;;;;18.23;16.48;;;;;;;14.07;73.86;99078.91;4994557;28;102736;-62
2022/04/30 02:34:09;;;;;;;15.57;14.07;;;;;;;14.22;73.21;99084.78;4993281;28;103659;-61
2022/04/30 02:36:37;;;;;;;18.75;16.92;;;;;;;13.77;75.15;99086.66;4994356;28;103178;-62
2022/04/30 02:39:05;;;;;;;19.02;16.98;;;;;;;13.79;75.85;99084.72;4995565;28;102684;-69
2022/04/30 02:41:35;;;;;;;19.15;17.17;;;;;;;13.90;74.74;99093.53;4992447;28;102629;-69
2022/04/30 02:44:04;;;;;;;18.30;16.42;;;;;;;14.12;73.66;99081.19;4993701;28;104148;-70
2022/04/30 02:46:32;;;;;;;17.70;15.73;;;;;;;14.17;72.67;99082.50;4994546;28;103273;-70
2022/04/30 02:49:02;;;;;;;16.80;15.20;;;;;;;13.98;73.72;99081.47;4994603;28;102764;-62
2022/04/30 02:51:29;;;;;;;17.73;16.05;;;;;;;13.82;74.40;99090.66;4994536;28;102736;-62
2022/04/30 02:53:57;;;;;;;18.45;16.63;;;;;;;13.58;75.46;99083.78;4975948;28;104216;-69
2022/04/30 02:56:25;;;;;;;15.02;13.63;;;;;;;13.92;74.04;99080.16;4996119;28;103207;-62
2022/04/30 03:01:39;;;;;;;19.60;17.65;;;;;;;13.53;75.51;99072.69;4991865;28;103422;-62
2022/04/30 03:04:19;;;;;;;15.98;14.40;;;;;;;13.90;74.40;99072.28;4991532;28;104391;-69
2022/04/30 03:06:47;;;;;;;19.23;17.33;;;;;;;13.75;75.08;99077.97;4994309;28;103189;-69
2022/04/30 03:09:18;;;;;;;17.95;16.35;;;;;;;13.75;75.33;99075.31;4993385;28;102813;-69
2022/04/30 03:11:48;;;;;;;18.42;16.63;;;;;;;13.69;76.16;99071.34;4992202;28;102868;-61
2022/04/30 03:14:16;;;;;;;18.48;16.67;;;;;;;13.87;75.17;99077.84;4993177;28;103192;-69
2022/04/30 03:22:18;;;;;;;21.77;19.47;;;;;;;13.14;78.84;99077.44;4973056;28;104607;-61
2022/04/30 03:24:46;;;;;;;20.43;18.43;;;;;;;13.54;77.45;99080.50;4975762;28;103473;-70
2022/04/30 03:27:17;;;;;;;23.63;21.20;;;;;;;13.17;78.69;99077.22;4994558;28;102968;-62
2022/04/30 03:29:46;;;;;;;22.85;20.55;;;;;;;13.22;79.50;99077.69;4994060;28;102613;-62
2022/04/30 03:32:14;;;;;;;21.95;19.77;;;;;;;13.41;78.32;99078.94;4975116;28;104044;-62
2022/04/30 03:34:43;;;;;;;24.23;21.83;;;;;;;12.93;80.84;99079.06;4991419;28;103805;-69
2022/04/30 03:37:13;;;;;;;22.27;19.90;;;;;;;13.16;79.96;99083.50;4977052;28;103304;-63
2022/04/30 03:39:43;;;;;;;23.27;20.42;;;;;;;13.11;79.85;99087.44;4991814;28;103149;-69
2022/04/30 03:42:11;;;;;;;23.95;21.55;;;;;;;13.31;79.37;99090.25;4976524;28;102705;-70
2022/04/30 03:44:39;;;;;;;23.73;21.20;;;;;;;13.14;80.82;99092.50;4991884;28;104257;-61
2022/04/30 03:47:08;;;;;;;25.48;22.88;;;;;;;13.12;80.84;99102.41;4991923;28;103058;-62
2022/04/30 03:49:36;;;;;;;23.50;21.30;;;;;;;13.09;81.01;99103.47;4993529;28;102717;-69
2022/04/30 03:52:08;;;;;;;23.27;20.98;;;;;;;13.40;79.83;99104.63;4975723;28;104208;-69
2022/04/30 03:54:36;;;;;;;24.23;21.77;;;;;;;13.32;79.44;99107.88;4989339;28;103307;-69
2022/04/30 03:57:04;;;;;;;26.15;23.65;;;;;;;12.98;81.39;99105.22;4994834;28;103187;-69
2022/04/30 03:59:32;;;;;;;23.90;21.38;;;;;;;13.31;80.32;99108.81;4982356;28;103031;-70
2022/04/30 04:02:03;;;;;;;27.97;25.07;;;;;;;13.04;82.53;99113.56;4994163;28;104015;-70
2022/04/30 04:04:31;;;;;;;28.73;25.75;;;;;;;12.71;84.12;99116.09;4974690;28;104221;-62
2022/04/30 04:07:00;;;;;;;27.13;24.42;;;;;;;12.87;84.95;99110.47;4994023;28;103400;-71
2022/04/30 04:09:29;;;;;;;27.20;24.48;;;;;;;12.84;84.18;99113.38;4993592;28;103804;-70
2022/04/30 04:11:57;;;;;;;31.10;27.67;;;;;;;12.52;86.45;99116.59;4994485;28;102753;-61
2022/04/30 04:19:56;;;;;;;28.98;25.92;;;;;;;12.61;86.40;99104.47;4978579;28;102774;-62
2022/04/30 04:22:24;;;;;;;27.57;24.83;;;;;;;12.83;85.22;99104.56;4991312;28;103090;-62
2022/04/30 04:27:41;;;;;;;26.47;23.97;;;;;;;12.74;85.82;99121.19;4984213;28;103173;-70
2022/04/30 04:30:10;;;;;;;27.13;24.50;;;;;;;12.79;85.67;99119.03;4987300;28;102974;-63
2022/04/30 04:32:38;;;;;;;28.23;25.42;;;;;;;12.80;85.31;99126.84;4982678;28;104106;-62
2022/04/30 04:35:06;;;;;;;29.25;26.13;;;;;;;12.79;84.77;99129.63;4991442;28;103048;-62
2022/04/30 04:37:34;;;;;;;27.23;24.40;;;;;;;12.80;84.89;99132.16;4986771;28;103923;-70
2022/04/30 04:40:05;;;;;;;28.27;25.38;;;;;;;12.74;85.91;99126.47;4989260;28;102619;-70
2022/04/30 04:42:33;;;;;;;28.65;25.85;;;;;;;12.60;86.61;99135.44;4972452;28;103076;-71
2022/04/30 04:45:01;;;;;;;30.27;27.10;;;;;;;12.24;88.60;99127.50;4987281;28;103012;-70
2022/04/30 04:47:29;;;;;;;28.27;25.38;;;;;;;12.47;88.00;99137.28;4982433;28;104188;-71
2022/04/30 04:50:00;;;;;;;30.65;27.55;;;;;;;12.31;88.76;99133.22;4968197;28;103156;-71
2022/04/30 04:52:28;;;;;;;28.33;25.58;;;;;;;12.37;88.40;99138.09;4969297;28;104294;-71
2022/04/30 04:54:56;;;;;;;25.43;22.93;;;;;;;12.82;87.03;99139.16;4958355;28;103451;-70
2022/04/30 04:57:25;;;;;;;29.10;26.03;;;;;;;12.40;88.62;99138.72;4978620;28;103529;-70
2022/04/30 04:59:54;;;;;;;30.92;27.92;;;;;;;12.33;88.98;99136.59;4974667;28;103009;-71
2022/04/30 05:02:24;;;;;;;29.00;26.13;;;;;;;12.41;89.41;99139.53;4985286;28;104093;-71
2022/04/30 05:04:52;;;;;;;26.40;23.60;;;;;;;12.65;88.42;99138.59;4983290;28;103922;-65
2022/04/30 05:07:20;;;;;;;26.50;23.88;;;;;;;12.97;86.13;99144.16;4983223;28;103216;-67
2022/04/30 05:09:48;;;;;;;27.02;24.42;;;;;;;12.82;87.52;99155.91;4981970;28;102726;-63
2022/04/30 05:12:16;;;;;;;25.48;23.05;;;;;;;12.94;87.22;99152.31;4977839;28;103972;-64
2022/04/30 05:14:46;;;;;;;22.35;20.17;;;;;;;13.14;85.59;99146.41;4967611;28;104303;-63
2022/04/30 05:17:15;;;;;;;24.70;22.38;;;;;;;13.28;84.12;99155.97;4983406;28;103336;-63
2022/04/30 05:19:43;;;;;;;27.02;24.38;;;;;;;12.63;87.14;99160.88;4979393;28;103181;-67
2022/04/30 05:22:12;;;;;;;24.75;22.35;;;;;;;12.87;87.26;99161.72;4978396;28;102967;-67
2022/04/30 05:24:40;;;;;;;24.63;22.33;;;;;;;13.16;85.75;99167.53;4983920;28;104199;-63
2022/04/30 05:27:09;;;;;;;25.05;22.48;;;;;;;13.30;84.28;99168.16;4989382;28;103488;-63
2022/04/30 05:29:37;;;;;;;22.10;20.00;;;;;;;13.48;83.03;99170.38;4980454;28;102733;-68
2022/04/30 05:32:07;;;;;;;25.40;22.90;;;;;;;13.25;84.29;99172.97;4990872;28;102682;-63
2022/04/30 05:34:35;;;;;;;22.85;20.75;;;;;;;13.36;84.43;99175.66;4993389;28;103541;-63
2022/04/30 05:37:04;;;;;;;23.70;21.58;;;;;;;13.38;84.36;99180.00;4994194;28;103314;-63
2022/04/30 05:39:32;;;;;;;24.50;22.10;;;;;;;13.19;86.06;99178.75;4981412;28;102625;-63
2022/04/30 05:42:00;;;;;;;26.43;23.73;;;;;;;13.15;86.03;99179.94;4984089;28;102969;-64
2022/04/30 05:44:28;;;;;;;27.70;24.93;;;;;;;13.19;86.38;99180.56;4992708;28;103299;-64
2022/04/30 05:46:56;;;;;;;26.40;23.90;;;;;;;13.28;86.30;99180.72;4990338;28;103453;-63
2022/04/30 05:49:27;;;;;;;25.58;23.15;;;;;;;13.41;84.86;99188.59;4981264;28;102646;-63
2022/04/30 05:51:58;;;;;;;30.40;27.07;;;;;;;12.92;87.10;99191.38;4985643;28;102927;-63
2022/04/30 05:54:26;;;;;;;25.30;22.80;;;;;;;13.28;86.10;99187.81;4985154;28;105373;-63
2022/04/30 05:56:54;;;;;;;23.23;21.10;;;;;;;13.31;87.14;99188.44;4985730;28;103236;-64
2022/04/30 05:59:22;;;;;;;22.77;20.65;;;;;;;13.66;84.28;99196.38;4974144;28;102840;-63
2022/04/30 06:01:50;;;;;;;26.77;24.30;;;;;;;13.29;84.71;99190.38;4973027;28;103352;-68
2022/04/30 06:04:18;;;;;;;24.95;22.55;;;;;;;13.41;83.88;99195.72;4993515;28;103328;-68
2022/04/30 06:06:48;;;;;;;25.38;22.95;;;;;;;13.65;83.38;99196.47;4994284;28;104042;-68
2022/04/30 06:09:16;;;;;;;24.42;22.13;;;;;;;13.61;83.39;99189.72;4983584;28;102708;-68
2022/04/30 06:11:47;;;;;;;20.37;18.43;;;;;;;13.82;82.41;99190.72;4981692;28;103121;-68
2022/04/30 06:14:16;;;;;;;21.90;19.90;;;;;;;13.73;82.49;99191.41;4985378;28;103317;-68
2022/04/30 06:16:44;;;;;;;20.20;18.50;;;;;;;13.95;81.69;99186.13;4991319;28;103494;-68
2022/04/30 06:19:12;;;;;;;22.77;20.70;;;;;;;13.86;81.83;99190.38;4988694;28;102511;-68
2022/04/30 06:21:40;;;;;;;22.90;20.75;;;;;;;13.82;82.50;99188.91;4968008;28;102799;-68
2022/04/30 06:24:10;;;;;;;23.80;21.50;;;;;;;13.66;84.25;99195.53;4986621;28;103232;-68
2022/04/30 06:26:38;;;;;;;22.30;20.30;;;;;;;13.81;83.09;99200.47;4970525;28;104215;-68
2022/04/30 06:29:06;;;;;;;19.23;17.52;;;;;;;14.06;82.23;99196.78;4980348;28;103137;-68
2022/04/30 06:31:34;;;;;;;24.02;21.83;;;;;;;13.90;82.56;99196.25;4989444;28;102659;-70
2022/04/30 06:34:02;;;;;;;22.67;20.63;;;;;;;13.91;82.57;99196.16;4972936;28;103425;-71
2022/04/30 06:36:31;;;;;;;25.37;22.97;;;;;;;13.33;84.84;99191.81;4982699;28;103344;-68
2022/04/30 06:38:59;;;;;;;21.85;19.88;;;;;;;13.76;83.97;99196.50;4983335;28;102675;-71
2022/04/30 06:41:28;;;;;;;21.45;19.50;;;;;;;14.07;82.96;99198.44;4986789;28;102807;-71
2022/04/30 06:43:56;;;;;;;24.77;22.48;;;;;;;13.81;82.84;99202.31;4984185;28;103252;-71
2022/04/30 06:46:27;;;;;;;23.40;21.27;;;;;;;13.40;86.35;99199.31;4988569;28;104384;-71
2022/04/30 06:48:55;;;;;;;23.23;21.15;;;;;;;13.72;84.42;99203.88;4989100;28;102584;-71
2022/04/30 06:51:23;;;;;;;23.73;21.55;;;;;;;13.58;86.10;99208.53;4985028;28;103872;-71
2022/04/30 06:59:28;;;;;;;22.98;20.83;;;;;;;13.77;85.58;99212.31;4974527;28;102685;-70
2022/04/30 07:02:00;;;;;;;24.75;22.42;;;;;;;13.75;85.89;99203.59;4976728;28;103648;-71
2022/04/30 07:04:31;;;;;;;23.25;21.10;;;;;;;13.69;85.88;99206.75;4972303;28;104447;-70
2022/04/30 07:06:59;;;;;;;22.88;20.70;;;;;;;13.77;83.97;99204.34;4966005;28;105127;-71
2022/04/30 07:09:32;;;;;;;18.45;16.95;;;;;;;14.09;84.08;99206.31;4984048;28;102671;-71
2022/04/30 07:12:04;;;;;;;20.58;18.77;;;;;;;13.99;83.21;99216.81;4979482;28;103195;-71
2022/04/30 07:14:35;;;;;;;21.50;19.50;;;;;;;13.90;82.89;99214.84;4968909;28;107717;-71
2022/04/30 07:17:08;;;;;;;19.52;17.75;;;;;;;13.94;83.19;99214.53;4958607;28;103205;-61
2022/04/30 07:19:36;;;;;;;21.00;19.10;;;;;;;13.77;84.49;99225.59;4955664;28;102903;-61
2022/04/30 07:22:07;;;;;;;21.77;19.67;;;;;;;13.77;83.63;99225.59;4977013;28;104720;-61
2022/04/30 07:24:36;;;;;;;19.90;18.05;;;;;;;13.95;82.47;99220.66;4975150;28;103846;-60
2022/04/30 07:27:08;;;;;;;24.40;22.10;;;;;;;13.88;82.57;99222.09;4978587;28;104045;-60
2022/04/30 07:29:38;;;;;;;22.75;20.65;;;;;;;13.74;83.24;99217.88;4973097;28;102696;-61
2022/04/30 07:32:07;;;;;;;20.05;18.23;;;;;;;13.86;82.62;99216.94;4980470;28;103716;-61
2022/04/30 07:34:36;;;;;;;21.13;19.33;;;;;;;13.69;83.63;99228.00;4978162;28;104059;-60
2022/04/30 07:37:10;;;;;;;21.73;19.75;;;;;;;13.66;84.49;99230.03;4966263;28;103197;-61
2022/04/30 07:39:39;;;;;;;17.38;15.88;;;;;;;14.04;84.20;99222.59;4988394;28;103053;-63
2022/04/30 07:42:10;;;;;;;18.42;16.83;;;;;;;14.28;81.63;99223.34;4995543;28;102712;-62
2022/04/30 07:44:39;;;;;;;21.73;19.85;;;;;;;13.88;83.73;99233.59;5001583;28;103274;-63
2022/04/30 07:47:09;;;;;;;19.23;17.60;;;;;;;13.65;88.19;99231.84;5006493;28;103229;-62
2022/04/30 07:49:37;;;;;;;17.80;16.30;;;;;;;14.21;85.12;99230.09;5000177;28;102689;-63
2022/04/30 07:52:06;;;;;;;18.90;17.17;;;;;;;14.19;84.67;99231.19;4990601;28;102819;-63
2022/04/30 07:54:34;;;;;;;19.13;17.40;;;;;;;14.25;83.46;99231.56;4997406;28;103778;-63
2022/04/30 07:57:03;;;;;;;19.50;17.83;;;;;;;14.15;85.16;99230.56;5002144;28;103321;-63
2022/04/30 07:59:33;;;;;;;21.02;19.17;;;;;;;14.04;85.25;99229.72;5006023;28;102728;-62
2022/04/30 08:02:01;;;;;;;21.77;19.77;;;;;;;13.72;84.28;99227.78;4997702;28;102868;-63
2022/04/30 08:04:29;;;;;;;16.75;15.35;;;;;;;14.38;82.97;99228.78;4987376;28;103785;-63
2022/04/30 08:06:59;;;;;;;20.63;18.85;;;;;;;14.24;82.48;99227.19;4988099;28;104171;-63
2022/04/30 08:09:27;;;;;;;18.35;16.85;;;;;;;14.28;82.28;99231.31;4981929;28;102864;-63
2022/04/30 08:11:55;;;;;;;19.83;18.02;;;;;;;14.20;83.53;99231.09;4977148;28;103165;-63
2022/04/30 08:14:23;;;;;;;13.82;12.65;;;;;;;14.68;81.68;99236.97;4999063;28;104245;-63
2022/04/30 08:16:54;;;;;;;17.88;16.27;;;;;;;14.46;81.19;99245.81;4998480;28;103374;-63
2022/04/30 08:19:22;;;;;;;18.63;17.00;;;;;;;13.74;83.57;99235.59;4998064;28;102691;-63
2022/04/30 08:21:51;;;;;;;17.83;16.38;;;;;;;13.96;83.29;99246.25;4999530;28;103736;-62
2022/04/30 08:24:38;;;;;;;18.88;17.27;;;;;;;13.85;83.32;99240.94;4993031;28;104824;-63
2022/04/30 08:27:07;;;;;;;19.90;18.20;;;;;;;13.50;84.37;99238.31;5000376;28;103230;-63
2022/04/30 08:29:35;;;;;;;18.60;17.00;;;;;;;13.45;85.87;99245.78;4995481;28;103332;-63
2022/04/30 08:32:05;;;;;;;16.40;15.00;;;;;;;13.69;84.57;99233.31;5004092;28;103086;-63
2022/04/30 08:34:33;;;;;;;20.42;18.63;;;;;;;12.97;87.13;99238.81;4987010;28;104220;-63
2022/04/30 08:37:01;;;;;;;18.92;17.23;;;;;;;13.41;85.75;99232.88;4986056;28;104327;-63
2022/04/30 08:39:32;;;;;;;19.23;17.58;;;;;;;12.98;87.97;99245.78;4997673;28;102714;-63
2022/04/30 08:42:00;;;;;;;19.10;17.40;;;;;;;12.84;88.25;99246.78;4997770;28;103049;-63
2022/04/30 08:44:30;;;;;;;19.48;17.58;;;;;;;13.20;87.93;99233.50;4997159;28;103700;-63
2022/04/30 08:46:58;;;;;;;17.90;16.45;;;;;;;13.44;85.71;99243.25;5000914;28;103304;-63
2022/04/30 08:49:28;;;;;;;16.95;15.55;;;;;;;13.43;85.42;99237.09;5006480;28;102623;-63
2022/04/30 08:51:56;;;;;;;17.80;16.23;;;;;;;13.33;86.37;99242.22;4983358;28;103695;-63
2022/04/30 08:54:27;;;;;;;17.83;16.33;;;;;;;13.51;86.18;99244.47;4998263;28;103175;-62
2022/04/30 08:56:56;;;;;;;18.30;16.67;;;;;;;13.16;87.57;99234.72;5007056;28;103177;-63
2022/04/30 08:59:25;;;;;;;18.20;16.67;;;;;;;13.11;86.52;99242.13;5004716;28;102773;-68
2022/04/30 09:01:55;;;;;;;15.32;14.05;;;;;;;13.47;86.07;99241.22;4989590;28;102765;-67
2022/04/30 09:04:23;;;;;;;14.50;13.40;;;;;;;13.84;84.05;99241.88;5006209;28;103881;-67
2022/04/30 09:06:55;;;;;;;16.50;15.10;;;;;;;13.56;84.62;99239.69;5006429;28;103199;-68
2022/04/30 09:09:25;;;;;;;16.85;15.45;;;;;;;13.42;86.26;99239.88;5002615;28;102666;-67
2022/04/30 09:11:56;;;;;;;16.17;14.83;;;;;;;13.61;85.52;99245.47;4990903;28;103921;-62
2022/04/30 09:14:25;;;;;;;14.20;13.10;;;;;;;13.96;84.15;99246.25;4987254;28;104133;-62
2022/04/30 09:17:04;;;;;;;16.52;15.13;;;;;;;13.70;84.09;99239.44;5006924;28;103069;-63
2022/04/30 09:19:33;;;;;;;16.05;14.75;;;;;;;13.59;84.69;99242.94;5004407;28;102904;-62
2022/04/30 09:22:03;;;;;;;15.13;13.93;;;;;;;13.63;85.09;99240.88;4986399;28;104103;-62
2022/04/30 09:24:31;;;;;;;14.27;13.17;;;;;;;13.56;84.54;99239.69;5002567;28;104244;-62
2022/04/30 09:27:04;;;;;;;15.10;13.80;;;;;;;13.51;84.70;99240.00;5003251;28;102940;-62
2022/04/30 09:29:32;;;;;;;13.50;12.50;;;;;;;13.50;84.86;99243.63;5005686;28;102715;-63
2022/04/30 09:32:00;;;;;;;11.30;10.48;;;;;;;13.96;83.32;99243.59;4988129;28;103934;-62
2022/04/30 09:37:45;;;;;;;11.70;10.80;;;;;;;14.05;82.92;99245.56;4998858;28;103207;-62
2022/04/30 09:40:24;;;;;;;11.63;10.73;;;;;;;13.88;83.40;99243.34;5011445;28;102929;-63
2022/04/30 09:42:55;;;;;;;10.57;9.77;;;;;;;13.84;83.86;99247.19;5010097;28;103859;-62
2022/04/30 09:45:30;;;;;;;11.65;10.75;;;;;;;14.03;82.43;99247.50;5009439;28;103256;-62
2022/04/30 09:48:00;;;;;;;11.30;10.40;;;;;;;14.07;81.81;99248.06;4989523;28;103191;-63
2022/04/30 09:56:07;;;;;;;11.38;10.45;;;;;;;13.96;82.05;99246.25;4987694;28;104267;-67
2022/04/30 09:58:42;;;;;;;12.30;11.25;;;;;;;13.05;86.23;99247.84;5010291;28;103201;-68
2022/04/30 10:01:12;;;;;;;13.02;12.02;;;;;;;13.27;84.71;99242.72;4991409;28;102597;-68
2022/04/30 10:03:42;;;;;;;12.77;11.68;;;;;;;13.18;85.61;99247.84;5010029;28;102666;-67
2022/04/30 10:06:11;;;;;;;12.82;11.80;;;;;;;13.39;86.25;99251.53;4995002;28;104145;-68
2022/04/30 10:08:44;;;;;;;10.23;9.43;;;;;;;13.80;84.20;99241.31;5001108;28;103214;-68
2022/04/30 10:11:22;;;;;;;10.43;9.60;;;;;;;13.80;82.09;99253.72;5000987;28;102844;-68
2022/04/30 10:14:10;;;;;;;8.87;8.10;;;;;;;13.65;82.11;99239.81;5004193;28;103136;-67
2022/04/30 10:16:38;;;;;;;10.05;9.20;;;;;;;13.69;84.26;99246.59;5009198;28;104121;-67
2022/04/30 10:19:11;;;;;;;10.00;9.13;;;;;;;13.81;85.26;99247.47;5003088;28;103218;-67
2022/04/30 10:21:39;;;;;;;9.60;8.80;;;;;;;13.15;84.13;99245.41;5001516;28;102678;-62
2022/04/30 10:24:12;;;;;;;7.20;6.60;;;;;;;13.08;82.49;99247.66;5006894;28;104555;-62
2022/04/30 10:26:59;;;;;;;6.43;5.93;;;;;;;13.55;81.33;99240.63;5009395;28;104048;-67
2022/04/30 10:29:27;;;;;;;8.07;7.38;;;;;;;13.38;81.36;99244.56;5007109;28;103000;-67
2022/04/30 10:31:55;;;;;;;9.95;9.20;;;;;;;12.93;85.39;99248.78;5004447;28;102547;-67
2022/04/30 10:34:29;;;;;;;11.82;10.82;;;;;;;13.00;87.27;99238.56;4996686;28;102920;-67
2022/04/30 10:37:01;;;;;;;8.77;8.07;;;;;;;13.35;85.12;99239.47;5007804;28;104673;-67
2022/04/30 10:39:31;;;;;;;8.25;7.55;;;;;;;12.96;86.14;99232.66;4988035;28;102989;-69
2022/04/30 10:41:59;;;;;;;6.45;5.95;;;;;;;13.40;83.21;99247.09;5007302;28;103090;-68
2022/04/30 10:44:31;;;;;;;5.63;5.22;;;;;;;13.05;82.90;99239.09;4989239;28;103631;-68
2022/04/30 10:47:09;;;;;;;6.60;6.10;;;;;;;13.39;83.86;99240.09;5008951;28;103668;-68
2022/04/30 10:49:37;;;;;;;5.87;5.47;;;;;;;12.86;85.00;99242.22;5006069;28;103218;-68
2022/04/30 10:52:06;;;;;;;5.88;5.35;;;;;;;13.19;83.44;99239.75;4998842;28;103069;-68
2022/04/30 10:54:40;;;;;;;4.20;3.90;;;;;;;14.09;81.01;99239.03;4992806;28;104743;-65
2022/04/30 10:57:09;;;;;;;4.40;4.10;;;;;;;13.86;81.41;99240.84;4984818;28;104161;-67
2022/04/30 10:59:37;;;;;;;4.80;4.40;;;;;;;13.62;80.52;99233.88;5004332;28;103881;-68
2022/04/30 11:02:06;;;;;;;4.77;4.47;;;;;;;13.45;81.12;99245.78;5009497;28;102944;-68
2022/04/30 11:04:35;;;;;;;4.80;4.50;;;;;;;12.89;83.42;99241.16;5004036;28;102991;-68
2022/04/30 11:07:04;;;;;;;4.63;4.33;;;;;;;13.34;82.27;99237.78;5003008;28;103065;-68
2022/04/30 11:09:33;;;;;;;5.40;5.00;;;;;;;12.71;88.11;99240.69;5004957;28;105391;-68
2022/04/30 11:12:03;;;;;;;5.75;5.35;;;;;;;12.53;85.00;99240.22;5000467;28;102625;-68
2022/04/30 11:14:31;;;;;;;4.88;4.57;;;;;;;12.26;85.57;99236.03;5003084;28;102827;-68
2022/04/30 11:16:59;;;;;;;5.10;4.80;;;;;;;12.37;85.65;99231.66;4986753;28;104315;-68
2022/04/30 11:19:27;;;;;;;5.38;5.05;;;;;;;12.41;87.49;99240.22;4991354;28;103295;-68
2022/04/30 11:21:57;;;;;;;5.32;4.93;;;;;;;12.55;87.10;99232.13;5003324;28;102673;-62
2022/04/30 11:24:27;;;;;;;5.50;5.10;;;;;;;13.23;84.37;99230.63;5006376;28;102721;-62
2022/04/30 11:26:56;;;;;;;4.97;4.57;;;;;;;12.74;85.14;99222.75;4987833;28;104155;-62
2022/04/30 11:29:26;;;;;;;6.03;5.63;;;;;;;12.92;84.34;99225.00;4974149;28;103276;-68
2022/04/30 11:31:56;;;;;;;5.40;5.00;;;;;;;12.72;85.10;99229.13;4997049;28;103098;-68
2022/04/30 11:34:25;;;;;;;4.85;4.45;;;;;;;13.78;81.06;99226.44;4996249;28;102604;-69
2022/04/30 11:36:54;;;;;;;5.07;4.70;;;;;;;13.89;80.63;99218.50;4982377;28;103277;-62
2022/04/30 11:39:23;;;;;;;5.35;4.95;;;;;;;13.40;82.70;99223.19;4984051;28;103915;-62
2022/04/30 11:41:53;;;;;;;5.78;5.38;;;;;;;12.61;85.69;99227.25;4992917;28;103239;-68
2022/04/30 11:44:27;;;;;;;5.32;4.95;;;;;;;12.79;83.81;99225.94;4997117;28;103712;-62
2022/04/30 11:46:56;;;;;;;8.80;8.10;;;;;;;13.46;83.40;99220.94;4992111;27;104000;-62
2022/04/30 11:49:26;;;;;;;5.70;5.30;;;;;;;14.30;79.20;99213.44;4993646;28;103364;-63
2022/04/30 11:52:10;;;;;;;6.20;5.70;;;;;;;14.22;79.84;99215.84;4985352;28;102660;-62
2022/04/30 11:54:39;;;;;;;5.22;4.93;;;;;;;14.59;77.40;99218.25;4988431;28;104019;-68
2022/04/30 11:57:10;;;;;;;5.00;4.70;;;;;;;15.22;78.77;99218.31;4986962;28;104037;-68
2022/04/30 11:59:41;;;;;;;4.88;4.53;;;;;;;14.48;78.97;99211.97;4963714;28;104578;-68
2022/04/30 12:02:12;;;;;;;4.65;4.35;;;;;;;14.61;79.57;99211.00;4985894;28;102886;-68
2022/04/30 12:04:42;;;;;;;5.90;5.50;;;;;;;13.33;81.40;99218.34;4986540;28;102617;-68